createdAt,value
2022-10-18T00:00:07.948Z,70.52
2022-10-18T00:02:41.077Z,71.21
2022-10-18T00:05:11.612Z,71.61
2022-10-18T00:07:42.254Z,71.66
2022-10-18T00:10:13.216Z,70.91
2022-10-18T00:12:43.707Z,71.97
2022-10-18T00:15:14.362Z,71.88
2022-10-18T00:17:45.999Z,73.93
2022-10-18T00:20:16.840Z,71.50
2022-10-18T00:22:47.609Z,70.17
2022-10-18T00:25:18.364Z,71.75
2022-10-18T00:27:48.951Z,72.64
2022-10-18T00:30:19.674Z,72.64
2022-10-18T00:32:50.102Z,72.13
2022-10-18T00:35:20.480Z,71.25
2022-10-18T00:37:50.794Z,71.66
2022-10-18T00:40:21.201Z,68.76
2022-10-18T00:42:52.175Z,67.87
2022-10-18T00:46:30.811Z,67.52
2022-10-18T00:49:05.481Z,67.03
2022-10-18T00:51:54.659Z,66.62
2022-10-18T00:54:26.236Z,66.86
2022-10-18T00:56:57.505Z,67.09
2022-10-18T00:59:28.975Z,66.54
2022-10-18T01:01:59.435Z,66.67
2022-10-18T01:04:30.410Z,66.66
2022-10-18T01:07:35.330Z,66.52
2022-10-18T01:10:19.392Z,66.22
2022-10-18T01:13:12.200Z,66.43
2022-10-18T01:16:19.146Z,66.77
2022-10-18T01:18:59.972Z,66.33
2022-10-18T01:22:03.661Z,66.88
2022-10-18T01:24:37.543Z,66.88
2022-10-18T01:27:16.182Z,66.52
2022-10-18T01:30:23.309Z,66.77
2022-10-18T01:32:59.634Z,66.76
2022-10-18T01:35:36.476Z,66.59
2022-10-18T01:38:13.655Z,66.05
2022-10-18T01:40:47.718Z,66.53
2022-10-18T01:43:20.635Z,66.18
2022-10-18T01:45:52.053Z,66.51
2022-10-18T01:48:22.647Z,66.35
2022-10-18T01:50:55.219Z,66.15
2022-10-18T01:53:33.960Z,66.12
2022-10-18T01:56:22.328Z,66.55
2022-10-18T01:59:15.296Z,66.89
2022-10-18T02:01:55.597Z,65.97
2022-10-18T02:04:43.983Z,66.32
2022-10-18T02:07:39.226Z,66.54
2022-10-18T02:10:23.919Z,65.76
2022-10-18T02:12:57.547Z,65.72
2022-10-18T02:15:50.669Z,66.03
2022-10-18T02:18:26.955Z,65.83
2022-10-18T02:21:00.256Z,65.08
2022-10-18T02:23:32.210Z,64.99
2022-10-18T02:26:02.527Z,67.09
2022-10-18T02:28:33.414Z,65.36
2022-10-18T02:31:19.106Z,65.23
2022-10-18T02:33:59.504Z,65.17
2022-10-18T02:36:44.434Z,65.24
2022-10-18T02:39:37.082Z,65.00
2022-10-18T02:42:08.047Z,65.83
2022-10-18T02:44:39.652Z,65.05
2022-10-18T02:47:12.015Z,64.42
2022-10-18T02:49:42.688Z,64.18
2022-10-18T02:52:13.612Z,64.46
2022-10-18T02:54:43.950Z,64.39
2022-10-18T02:57:14.294Z,64.36
2022-10-18T02:59:44.659Z,63.96
2022-10-18T03:02:15.156Z,63.80
2022-10-18T03:04:45.658Z,63.82
2022-10-18T03:07:16.032Z,63.83
2022-10-18T03:10:41.018Z,63.96
2022-10-18T03:13:11.444Z,63.82
2022-10-18T03:15:41.836Z,63.61
2022-10-18T03:18:12.537Z,63.53
2022-10-18T03:20:43.669Z,63.42
2022-10-18T03:23:14.064Z,63.30
2022-10-18T03:25:46.411Z,62.97
2022-10-18T03:28:17.114Z,62.93
2022-10-18T03:30:47.495Z,62.65
2022-10-18T03:33:17.932Z,63.16
2022-10-18T03:35:48.817Z,62.88
2022-10-18T03:38:19.600Z,62.65
2022-10-18T03:40:50.192Z,62.71
2022-10-18T03:43:20.614Z,62.59
2022-10-18T03:45:51.108Z,62.35
2022-10-18T03:48:21.492Z,62.25
2022-10-18T03:50:51.929Z,62.14
2022-10-18T03:53:22.431Z,62.17
2022-10-18T03:55:56.696Z,62.11
2022-10-18T03:58:27.233Z,62.01
2022-10-18T04:00:57.681Z,62.37
2022-10-18T04:03:28.475Z,61.92
2022-10-18T04:06:06.692Z,62.15
2022-10-18T04:08:38.045Z,61.84
2022-10-18T04:11:13.096Z,61.74
2022-10-18T04:13:43.536Z,61.95
2022-10-18T04:16:13.846Z,62.18
2022-10-18T04:18:44.793Z,61.66
2022-10-18T04:21:15.332Z,61.78
2022-10-18T04:23:45.979Z,61.72
2022-10-18T04:26:17.588Z,61.66
2022-10-18T04:28:48.996Z,61.97
2022-10-18T04:31:19.394Z,61.79
2022-10-18T04:33:50.133Z,61.25
2022-10-18T04:36:20.728Z,61.58
2022-10-18T04:38:51.110Z,61.57
2022-10-18T04:41:21.492Z,61.11
2022-10-18T04:43:53.106Z,61.44
2022-10-18T04:46:23.561Z,61.31
2022-10-18T04:48:54.015Z,61.68
2022-10-18T04:51:24.579Z,61.21
2022-10-18T04:53:54.947Z,61.35
2022-10-18T04:56:25.637Z,60.97
2022-10-18T04:58:56.057Z,61.32
2022-10-18T05:01:27.094Z,60.74
2022-10-18T05:03:57.858Z,60.88
2022-10-18T05:06:28.253Z,61.01
2022-10-18T05:08:58.674Z,60.76
2022-10-18T05:11:29.101Z,60.71
2022-10-18T05:13:59.498Z,61.06
2022-10-18T05:16:29.793Z,60.54
2022-10-18T05:19:00.382Z,60.82
2022-10-18T05:21:30.782Z,60.95
2022-10-18T05:24:01.295Z,60.62
2022-10-18T05:26:32.040Z,60.44
2022-10-18T05:29:02.648Z,60.45
2022-10-18T05:31:33.163Z,60.28
2022-10-18T05:34:03.773Z,60.23
2022-10-18T05:36:35.014Z,60.37
2022-10-18T05:39:06.389Z,60.09
2022-10-18T05:41:37.698Z,60.11
2022-10-18T05:44:08.409Z,60.60
2022-10-18T05:46:38.775Z,60.19
2022-10-18T05:49:09.111Z,60.11
2022-10-18T05:51:39.609Z,59.69
2022-10-18T05:54:15.631Z,60.04
2022-10-18T05:56:46.035Z,59.99
2022-10-18T05:59:16.430Z,60.02
2022-10-18T06:01:46.903Z,60.13
2022-10-18T06:04:19.089Z,59.89
2022-10-18T06:06:49.908Z,60.03
2022-10-18T06:09:20.495Z,59.72
2022-10-18T06:11:51.547Z,59.92
2022-10-18T06:14:21.974Z,59.80
2022-10-18T06:16:52.497Z,59.87
2022-10-18T06:19:23.145Z,59.87
2022-10-18T06:21:57.641Z,59.75
2022-10-18T06:24:28.715Z,59.41
2022-10-18T06:26:59.556Z,59.83
2022-10-18T06:29:30.071Z,59.35
2022-10-18T06:32:00.983Z,59.54
2022-10-18T06:34:31.700Z,59.24
2022-10-18T06:37:02.373Z,59.39
2022-10-18T06:39:32.719Z,59.36
2022-10-18T06:42:03.053Z,59.02
2022-10-18T06:44:37.267Z,59.30
2022-10-18T06:47:09.529Z,58.98
2022-10-18T06:49:39.843Z,59.05
2022-10-18T06:52:10.424Z,59.17
2022-10-18T06:54:41.580Z,58.96
2022-10-18T06:57:12.047Z,59.00
2022-10-18T06:59:42.610Z,59.05
2022-10-18T07:02:21.527Z,58.82
2022-10-18T07:04:52.065Z,59.05
2022-10-18T07:07:22.833Z,58.89
2022-10-18T07:09:53.272Z,58.73
2022-10-18T07:12:23.663Z,58.56
2022-10-18T07:14:54.320Z,58.48
2022-10-18T07:17:24.997Z,58.75
2022-10-18T07:19:56.003Z,58.59
2022-10-18T07:22:30.144Z,58.13
2022-10-18T07:25:01.241Z,58.33
2022-10-18T07:27:32.458Z,58.59
2022-10-18T07:30:02.961Z,58.27
2022-10-18T07:32:33.510Z,58.15
2022-10-18T07:35:04.422Z,58.06
2022-10-18T07:37:35.100Z,57.99
2022-10-18T07:40:06.323Z,57.96
2022-10-18T07:42:37.371Z,57.83
2022-10-18T07:45:09.649Z,57.82
2022-10-18T07:47:40.680Z,57.66
2022-10-18T07:50:11.373Z,58.00
2022-10-18T07:52:41.720Z,57.56
2022-10-18T07:55:15.454Z,57.43
2022-10-18T07:57:46.007Z,57.50
2022-10-18T08:00:16.567Z,57.46
2022-10-18T08:02:46.990Z,57.32
2022-10-18T08:05:17.620Z,57.38
2022-10-18T08:07:48.595Z,57.19
2022-10-18T08:10:19.273Z,57.11
2022-10-18T08:12:50.209Z,57.06
2022-10-18T08:15:22.809Z,57.25
2022-10-18T08:17:54.079Z,56.93
2022-10-18T08:20:31.326Z,57.01
2022-10-18T08:23:02.117Z,57.01
2022-10-18T08:25:33.340Z,56.95
2022-10-18T08:28:03.766Z,56.85
2022-10-18T08:30:34.212Z,56.97
2022-10-18T08:33:05.506Z,56.74
2022-10-18T08:35:36.059Z,56.85
2022-10-18T08:38:06.661Z,56.67
2022-10-18T08:40:37.529Z,56.73
2022-10-18T08:43:31.901Z,56.40
2022-10-18T08:46:02.651Z,56.90
2022-10-18T08:48:55.859Z,56.62
2022-10-18T08:51:39.438Z,56.49
2022-10-18T08:54:36.614Z,56.63
2022-10-18T08:57:16.099Z,56.61
2022-10-18T08:59:46.647Z,56.73
2022-10-18T09:02:29.650Z,56.65
2022-10-18T09:05:26.409Z,56.54
2022-10-18T09:08:20.291Z,56.58
2022-10-18T09:11:22.652Z,56.38
2022-10-18T09:13:58.760Z,56.68
2022-10-18T09:16:51.414Z,56.59
2022-10-18T09:20:10.335Z,59.03
2022-10-18T09:22:43.402Z,59.72
2022-10-18T09:25:19.363Z,60.55
2022-10-18T09:27:57.195Z,61.21
2022-10-18T09:30:38.181Z,61.58
2022-10-18T09:33:15.676Z,62.51
2022-10-18T09:35:58.026Z,62.35
2022-10-18T09:38:37.592Z,62.28
2022-10-18T09:41:24.506Z,61.40
2022-10-18T09:44:25.572Z,61.09
2022-10-18T09:47:12.290Z,60.83
2022-10-18T09:49:53.587Z,60.18
2022-10-18T09:52:47.202Z,60.87
2022-10-18T09:55:26.640Z,60.39
2022-10-18T09:58:02.229Z,60.05
2022-10-18T10:00:54.176Z,60.83
2022-10-18T10:03:27.163Z,60.28
2022-10-18T10:06:12.998Z,61.01
2022-10-18T10:08:45.623Z,60.79
2022-10-18T10:11:41.227Z,61.35
2022-10-18T10:17:06.798Z,61.17
2022-10-18T10:19:37.170Z,60.20
2022-10-18T10:22:13.543Z,60.10
2022-10-18T10:24:58.945Z,61.06
2022-10-18T10:27:47.170Z,60.71
2022-10-18T10:30:28.883Z,60.73
2022-10-18T10:33:16.477Z,60.34
2022-10-18T10:35:53.605Z,60.78
2022-10-18T10:38:29.610Z,60.96
2022-10-18T10:41:01.135Z,60.59
2022-10-18T10:43:39.234Z,61.26
2022-10-18T10:46:14.378Z,61.07
2022-10-18T10:49:27.941Z,61.79
2022-10-18T10:52:09.255Z,61.70
2022-10-18T10:54:51.171Z,61.19
2022-10-18T10:57:27.342Z,62.10
2022-10-18T11:00:00.979Z,61.52
2022-10-18T11:02:34.783Z,61.63
2022-10-18T11:05:47.871Z,62.29
2022-10-18T11:08:24.026Z,61.67
2022-10-18T11:11:03.099Z,61.56
2022-10-18T11:13:49.921Z,61.77
2022-10-18T11:16:55.578Z,63.66
2022-10-18T11:19:56.258Z,64.19
2022-10-18T11:22:29.663Z,64.38
2022-10-18T11:25:00.403Z,64.59
2022-10-18T11:28:17.058Z,65.46
2022-10-18T11:30:47.397Z,65.70
2022-10-18T11:34:06.918Z,65.66
2022-10-18T11:36:33.996Z,65.63
2022-10-18T11:39:35.590Z,65.67
2022-10-18T11:42:31.372Z,65.30
2022-10-18T11:45:07.828Z,66.53
2022-10-18T11:47:42.894Z,66.77
2022-10-18T11:50:34.963Z,66.71
2022-10-18T11:53:25.181Z,66.84
2022-10-18T11:56:14.041Z,67.00
2022-10-18T11:59:09.195Z,66.76
2022-10-18T12:02:22.969Z,66.68
2022-10-18T12:05:25.298Z,66.52
2022-10-18T12:08:14.841Z,66.77
2022-10-18T12:11:04.566Z,66.52
2022-10-18T12:13:48.054Z,66.82
2022-10-18T12:16:45.541Z,67.04
2022-10-18T12:19:31.080Z,66.69
2022-10-18T12:22:15.976Z,66.83
2022-10-18T12:24:46.397Z,66.53
2022-10-18T12:27:18.654Z,66.98
2022-10-18T12:30:00.283Z,67.26
2022-10-18T12:32:42.603Z,67.22
2022-10-18T12:35:25.227Z,67.58
2022-10-18T12:38:07.707Z,67.45
2022-10-18T12:40:45.891Z,67.68
2022-10-18T12:43:39.334Z,68.02
2022-10-18T12:46:16.724Z,67.95
2022-10-18T12:49:05.699Z,67.86
2022-10-18T12:51:36.140Z,68.56
2022-10-18T12:54:11.870Z,68.66
2022-10-18T12:56:44.762Z,69.01
2022-10-18T12:59:18.379Z,69.09
2022-10-18T13:01:54.861Z,69.01
2022-10-18T13:04:34.712Z,69.08
2022-10-18T13:07:35.278Z,69.56
2022-10-18T13:10:13.457Z,69.46
2022-10-18T13:12:48.970Z,69.52
2022-10-18T13:15:40.489Z,70.18
2022-10-18T13:18:34.670Z,70.04
2022-10-18T13:21:22.455Z,70.04
2022-10-18T13:24:17.191Z,70.17
2022-10-18T13:27:24.408Z,70.21
2022-10-18T13:30:19.549Z,70.49
2022-10-18T13:33:18.066Z,70.63
2022-10-18T13:36:22.906Z,71.03
2022-10-18T13:38:58.409Z,71.15
2022-10-18T13:41:35.653Z,71.13
2022-10-18T13:44:41.244Z,71.62
2022-10-18T13:47:33.785Z,71.24
2022-10-18T13:50:26.381Z,71.66
2022-10-18T13:53:09.758Z,71.67
2022-10-18T13:56:04.776Z,71.86
2022-10-18T13:59:18.834Z,71.56
2022-10-18T14:02:30.780Z,69.94
2022-10-18T14:05:31.593Z,69.73
2022-10-18T14:08:26.358Z,69.26
2022-10-18T14:11:11.203Z,69.53
2022-10-18T14:14:15.967Z,68.86
2022-10-18T14:17:03.077Z,68.94
2022-10-18T14:20:06.199Z,69.34
2022-10-18T14:22:49.039Z,68.84
2022-10-18T14:25:44.853Z,68.87
2022-10-18T14:28:27.418Z,68.92
2022-10-18T14:31:22.510Z,70.50
2022-10-18T14:33:58.966Z,69.74
2022-10-18T14:36:50.729Z,69.59
2022-10-18T14:39:28.648Z,69.54
2022-10-18T14:42:00.238Z,68.72
2022-10-18T14:44:36.038Z,67.90
2022-10-18T14:47:22.559Z,66.96
2022-10-18T14:50:02.241Z,66.55
2022-10-18T14:52:38.197Z,65.82
2022-10-18T14:55:28.890Z,65.39
2022-10-18T14:58:01.974Z,64.33
2022-10-18T15:00:38.974Z,64.13
2022-10-18T15:03:17.236Z,63.64
2022-10-18T15:06:10.484Z,63.35
2022-10-18T15:08:49.550Z,63.60
2022-10-18T15:11:21.854Z,62.71
2022-10-18T15:14:11.086Z,62.72
2022-10-18T15:16:48.790Z,62.26
2022-10-18T15:19:20.639Z,61.81
2022-10-18T15:22:03.258Z,61.87
2022-10-18T15:24:45.351Z,62.11
2022-10-18T15:27:32.864Z,61.32
2022-10-18T15:30:16.573Z,60.94
2022-10-18T15:32:57.344Z,60.34
2022-10-18T15:35:35.391Z,60.91
2022-10-18T15:38:30.259Z,60.03
2022-10-18T15:41:02.465Z,60.09
2022-10-18T15:43:34.505Z,60.53
2022-10-18T15:46:07.412Z,59.97
2022-10-18T15:48:42.700Z,59.29
2022-10-18T15:51:49.579Z,59.35
2022-10-18T15:54:33.526Z,59.21
2022-10-18T15:57:11.751Z,58.94
2022-10-18T15:59:54.471Z,59.06
2022-10-18T16:02:26.205Z,59.19
2022-10-18T16:04:56.762Z,58.59
2022-10-18T16:07:27.616Z,59.09
2022-10-18T16:09:58.399Z,58.75
2022-10-18T16:12:28.897Z,58.52
2022-10-18T16:14:59.311Z,58.45
2022-10-18T16:17:29.882Z,58.52
2022-10-18T16:20:00.645Z,57.67
2022-10-18T16:22:33.461Z,57.61
2022-10-18T16:25:07.659Z,56.91
2022-10-18T16:27:38.352Z,57.06
2022-10-18T16:30:15.891Z,56.86
2022-10-18T16:32:47.793Z,57.25
2022-10-18T16:35:17.873Z,56.96
2022-10-18T16:37:48.350Z,55.81
2022-10-18T16:40:26.958Z,55.30
2022-10-18T16:42:57.286Z,55.89
2022-10-18T16:45:28.162Z,54.79
2022-10-18T16:47:58.450Z,54.84
2022-10-18T16:50:31.912Z,54.51
2022-10-18T16:53:03.807Z,54.28
2022-10-18T16:55:35.103Z,54.08
2022-10-18T16:58:05.820Z,54.36
2022-10-18T17:00:36.466Z,54.30
2022-10-18T17:03:07.130Z,54.88
2022-10-18T17:05:38.520Z,53.58
2022-10-18T17:08:09.576Z,54.63
2022-10-18T17:10:40.118Z,54.23
2022-10-18T17:13:10.958Z,53.56
2022-10-18T17:15:43.434Z,53.01
2022-10-18T17:18:21.263Z,52.39
2022-10-18T17:20:52.088Z,52.60
2022-10-18T17:23:22.495Z,53.74
2022-10-18T17:26:05.168Z,52.81
2022-10-18T17:28:39.256Z,52.69
2022-10-18T17:31:09.738Z,52.63
2022-10-18T17:33:40.280Z,52.41
2022-10-18T17:36:10.733Z,52.56
2022-10-18T17:38:41.114Z,51.76
2022-10-18T17:41:13.621Z,51.38
2022-10-18T17:43:43.532Z,52.29
2022-10-18T17:46:15.328Z,52.17
2022-10-18T17:48:45.899Z,52.25
2022-10-18T17:51:18.358Z,51.04
2022-10-18T17:53:48.803Z,51.88
2022-10-18T17:56:19.166Z,51.16
2022-10-18T17:58:52.948Z,51.11
2022-10-18T18:01:24.823Z,51.10
2022-10-18T18:03:59.393Z,50.79
2022-10-18T18:06:40.023Z,50.94
2022-10-18T18:09:14.482Z,51.53
2022-10-18T18:12:14.621Z,50.57
2022-10-18T18:14:45.361Z,51.33
2022-10-18T18:17:18.788Z,50.48
2022-10-18T18:19:51.743Z,51.06
2022-10-18T18:22:22.126Z,50.53
2022-10-18T18:24:52.452Z,50.63
2022-10-18T18:27:23.089Z,51.25
2022-10-18T18:29:53.513Z,51.00
2022-10-18T18:32:23.971Z,50.63
2022-10-18T18:34:54.511Z,50.86
2022-10-18T18:37:25.363Z,51.01
2022-10-18T18:39:55.759Z,51.31
2022-10-18T18:42:26.115Z,51.86
2022-10-18T18:44:56.482Z,51.69
2022-10-18T18:47:28.482Z,51.46
2022-10-18T18:49:59.440Z,51.83
2022-10-18T18:52:30.099Z,51.38
2022-10-18T18:55:00.656Z,51.48
2022-10-18T18:57:31.400Z,51.24
2022-10-18T19:00:01.980Z,50.95
2022-10-18T19:02:32.373Z,51.31
2022-10-18T19:05:03.019Z,51.38
2022-10-18T19:07:33.578Z,51.74
2022-10-18T19:10:04.129Z,51.83
2022-10-18T19:12:34.581Z,51.80
2022-10-18T19:15:05.169Z,51.53
2022-10-18T19:17:35.693Z,51.40
2022-10-18T19:20:07.654Z,51.33
2022-10-18T19:22:39.500Z,51.57
2022-10-18T19:25:10.779Z,50.99
2022-10-18T19:27:41.229Z,51.33
2022-10-18T19:30:13.522Z,50.47
2022-10-18T19:32:44.115Z,51.40
2022-10-18T19:35:14.534Z,51.33
2022-10-18T19:37:44.972Z,51.24
2022-10-18T19:40:15.398Z,50.86
2022-10-18T19:42:46.273Z,50.88
2022-10-18T19:45:16.735Z,50.99
2022-10-18T19:47:47.165Z,51.41
2022-10-18T19:50:17.586Z,50.59
2022-10-18T19:52:48.061Z,50.58
2022-10-18T19:55:19.907Z,50.63
2022-10-18T19:57:50.297Z,51.15
2022-10-18T20:00:21.256Z,50.66
2022-10-18T20:02:51.711Z,50.81
2022-10-18T20:05:22.551Z,50.85
2022-10-18T20:07:52.898Z,50.58
2022-10-18T20:10:23.340Z,51.14
2022-10-18T20:12:53.756Z,50.61
2022-10-18T20:15:24.110Z,50.96
2022-10-18T20:17:54.643Z,50.93
2022-10-18T20:20:25.008Z,50.54
2022-10-18T20:22:55.434Z,50.43
2022-10-18T20:25:26.330Z,50.73
2022-10-18T20:27:56.633Z,50.62
2022-10-18T20:30:27.381Z,50.51
2022-10-18T20:32:57.809Z,50.94
2022-10-18T20:35:28.178Z,50.87
2022-10-18T20:37:58.628Z,50.50
2022-10-18T20:40:29.007Z,50.53
2022-10-18T20:43:03.619Z,50.39
2022-10-18T20:45:34.607Z,50.39
2022-10-18T20:48:05.718Z,50.69
2022-10-18T20:50:36.174Z,50.42
2022-10-18T20:53:06.515Z,50.75
2022-10-18T20:55:40.066Z,50.75
2022-10-18T20:58:11.066Z,50.44
2022-10-18T21:00:41.537Z,50.61
2022-10-18T21:05:47.040Z,50.27
2022-10-18T21:08:17.481Z,50.15
2022-10-18T21:10:47.794Z,50.13
2022-10-18T21:13:18.124Z,50.46
2022-10-18T21:15:56.137Z,50.39
2022-10-18T21:18:31.728Z,49.99
2022-10-18T21:21:19.340Z,50.29
2022-10-18T21:23:50.114Z,50.47
2022-10-18T21:26:28.338Z,50.46
2022-10-18T21:29:01.212Z,50.25
2022-10-18T21:31:37.520Z,50.25
2022-10-18T21:34:16.661Z,50.53
2022-10-18T21:36:48.498Z,50.64
2022-10-18T21:41:57.561Z,50.42
2022-10-18T21:44:27.939Z,50.08
2022-10-18T21:46:58.644Z,50.01
2022-10-18T21:49:30.659Z,50.44
2022-10-18T21:52:04.502Z,50.16
2022-10-18T21:54:34.877Z,50.46
2022-10-18T21:57:05.278Z,50.03
2022-10-18T21:59:35.665Z,50.15
2022-10-18T22:02:06.403Z,49.66
2022-10-18T22:04:37.584Z,50.08
2022-10-18T22:07:08.024Z,50.08
2022-10-18T22:09:38.461Z,49.56
2022-10-18T22:12:10.843Z,49.50
2022-10-18T22:14:41.487Z,49.99
2022-10-18T22:17:11.916Z,49.36
2022-10-18T22:19:44.494Z,49.47
2022-10-18T22:22:14.860Z,49.81
2022-10-18T22:24:45.526Z,49.33
2022-10-18T22:27:15.936Z,49.24
2022-10-18T22:29:46.408Z,49.31
2022-10-18T22:32:17.231Z,49.88
2022-10-18T22:34:47.660Z,50.35
2022-10-18T22:37:18.101Z,51.17
2022-10-18T22:39:48.661Z,51.97
2022-10-18T22:42:18.991Z,52.63
2022-10-18T22:44:49.327Z,53.82
2022-10-18T22:47:19.782Z,54.12
2022-10-18T22:49:50.224Z,54.70
2022-10-18T22:52:20.751Z,55.65
2022-10-18T22:54:51.076Z,56.13
2022-10-18T22:57:21.467Z,57.39
2022-10-18T22:59:51.852Z,57.05
2022-10-18T23:02:22.226Z,55.78
2022-10-18T23:04:52.909Z,56.15
2022-10-18T23:07:23.807Z,57.12
2022-10-18T23:09:54.253Z,56.73
2022-10-18T23:12:24.659Z,57.37
2022-10-18T23:14:55.468Z,56.82
2022-10-18T23:17:25.858Z,57.69
2022-10-18T23:19:56.318Z,57.79
2022-10-18T23:22:26.707Z,57.87
2022-10-18T23:24:57.366Z,58.10
2022-10-18T23:27:27.815Z,58.73
2022-10-18T23:29:58.553Z,58.94
2022-10-18T23:32:29.578Z,59.73
2022-10-18T23:34:59.984Z,61.57
2022-10-18T23:37:30.425Z,62.00
2022-10-18T23:40:01.427Z,63.26
2022-10-18T23:42:32.263Z,66.56
2022-10-18T23:45:02.896Z,67.78
2022-10-18T23:47:34.087Z,67.87
2022-10-18T23:50:04.980Z,67.49
2022-10-18T23:52:35.493Z,68.94
2022-10-18T23:55:06.369Z,69.46
2022-10-18T23:57:38.771Z,71.37
